createdAt,value
2018-07-26T00:01:47.020Z,7.87
2018-07-26T00:04:17.083Z,8.00
2018-07-26T00:06:47.116Z,9.03
2018-07-26T00:09:17.221Z,8.27
2018-07-26T00:11:47.303Z,9.03
2018-07-26T00:14:17.368Z,8.87
2018-07-26T00:16:47.384Z,9.00
2018-07-26T00:19:17.526Z,8.70
2018-07-26T00:21:47.574Z,8.57
2018-07-26T00:24:17.639Z,8.67
2018-07-26T00:26:47.716Z,8.90
2018-07-26T00:29:17.900Z,9.43
2018-07-26T00:31:48.205Z,9.40
2018-07-26T00:34:18.261Z,9.10
2018-07-26T00:36:48.348Z,9.83
2018-07-26T00:39:18.476Z,9.10
2018-07-26T00:41:48.605Z,9.00
2018-07-26T00:44:18.660Z,9.80
2018-07-26T00:46:48.788Z,10.10
2018-07-26T00:49:18.871Z,9.67
2018-07-26T00:51:48.927Z,10.03
2018-07-26T00:54:18.992Z,11.03
2018-07-26T00:56:49.100Z,10.43
2018-07-26T00:59:19.404Z,10.33
2018-07-26T01:01:49.476Z,10.23
2018-07-26T01:04:19.556Z,10.10
2018-07-26T01:06:49.655Z,10.80
2018-07-26T01:09:19.792Z,10.67
2018-07-26T01:11:50.004Z,10.00
2018-07-26T01:14:20.136Z,11.27
2018-07-26T01:16:50.497Z,11.30
2018-07-26T01:19:20.596Z,11.00
2018-07-26T01:21:50.776Z,10.33
2018-07-26T01:24:20.864Z,11.33
2018-07-26T01:26:50.960Z,11.07
2018-07-26T01:29:21.319Z,10.03
2018-07-26T01:31:52.979Z,9.70
2018-07-26T01:34:24.328Z,11.10
2018-07-26T01:36:55.160Z,10.50
2018-07-26T01:39:24.909Z,11.23
2018-07-26T01:41:54.691Z,11.20
2018-07-26T01:44:25.719Z,10.30
2018-07-26T01:46:55.776Z,10.40
2018-07-26T01:49:25.864Z,10.50
2018-07-26T01:51:55.944Z,10.27
2018-07-26T01:54:25.984Z,10.57
2018-07-26T01:56:56.032Z,11.00
2018-07-26T01:59:25.997Z,10.43
2018-07-26T02:01:56.069Z,10.53
2018-07-26T02:04:26.172Z,9.83
2018-07-26T02:06:56.242Z,10.57
2018-07-26T02:09:26.300Z,10.80
2018-07-26T02:11:56.320Z,10.57
2018-07-26T02:14:31.755Z,10.87
2018-07-26T02:17:01.852Z,10.43
2018-07-26T02:19:31.996Z,10.90
2018-07-26T02:22:02.044Z,10.37
2018-07-26T02:24:32.108Z,9.67
2018-07-26T02:27:02.105Z,10.33
2018-07-26T02:29:32.204Z,10.67
2018-07-26T02:32:02.339Z,10.30
2018-07-26T02:34:32.392Z,9.73
2018-07-26T02:37:02.357Z,10.63
2018-07-26T02:39:32.512Z,10.50
2018-07-26T02:42:02.545Z,9.93
2018-07-26T02:44:32.616Z,9.33
2018-07-26T02:47:02.682Z,9.87
2018-07-26T02:49:32.728Z,9.43
2018-07-26T02:52:02.865Z,10.57
2018-07-26T02:54:32.933Z,9.70
2018-07-26T02:57:03.024Z,10.23
2018-07-26T02:59:33.016Z,10.47
2018-07-26T03:02:03.001Z,9.83
2018-07-26T03:04:33.077Z,10.17
2018-07-26T03:07:03.225Z,9.97
2018-07-26T03:09:33.216Z,9.50
2018-07-26T03:12:03.257Z,9.90
2018-07-26T03:14:37.525Z,10.13
2018-07-26T03:17:07.607Z,9.40
2018-07-26T03:19:37.760Z,9.97
2018-07-26T03:22:08.027Z,9.37
2018-07-26T03:24:38.125Z,9.43
2018-07-26T03:27:09.108Z,9.30
2018-07-26T03:29:39.208Z,9.30
2018-07-26T03:32:09.828Z,8.47
2018-07-26T03:34:39.996Z,9.47
2018-07-26T03:37:10.060Z,7.93
2018-07-26T03:39:40.146Z,9.03
2018-07-26T03:42:10.270Z,9.40
2018-07-26T03:44:39.960Z,8.43
2018-07-26T03:47:09.847Z,8.93
2018-07-26T03:49:39.969Z,8.53
2018-07-26T03:52:10.358Z,9.20
2018-07-26T03:54:40.420Z,8.63
2018-07-26T03:57:10.512Z,8.73
2018-07-26T03:59:40.503Z,9.03
2018-07-26T04:02:10.546Z,9.10
2018-07-26T04:04:40.631Z,7.87
2018-07-26T04:07:10.763Z,8.63
2018-07-26T04:09:41.041Z,8.87
2018-07-26T04:12:11.183Z,8.20
2018-07-26T04:14:41.340Z,8.53
2018-07-26T04:17:11.383Z,8.27
2018-07-26T04:19:41.404Z,8.67
2018-07-26T04:22:11.460Z,8.47
2018-07-26T04:24:41.511Z,8.67
2018-07-26T04:27:11.602Z,8.20
2018-07-26T04:29:41.671Z,8.93
2018-07-26T04:32:11.814Z,8.70
2018-07-26T04:34:41.847Z,7.90
2018-07-26T04:37:11.964Z,7.93
2018-07-26T04:39:41.976Z,8.03
2018-07-26T04:42:12.096Z,8.43
2018-07-26T04:44:42.107Z,8.53
2018-07-26T04:47:12.304Z,8.53
2018-07-26T04:49:42.332Z,7.87
2018-07-26T04:52:12.459Z,7.77
2018-07-26T04:54:42.658Z,8.10
2018-07-26T04:57:12.692Z,8.27
2018-07-26T04:59:42.786Z,7.77
2018-07-26T05:02:12.816Z,7.20
2018-07-26T05:04:42.924Z,8.30
2018-07-26T05:07:12.976Z,8.30
2018-07-26T05:09:43.078Z,7.87
2018-07-26T05:12:13.148Z,8.03
2018-07-26T05:14:43.186Z,7.53
2018-07-26T05:17:13.303Z,7.37
2018-07-26T05:19:43.683Z,8.00
2018-07-26T05:22:13.784Z,7.43
2018-07-26T05:24:44.060Z,7.40
2018-07-26T05:27:14.135Z,6.30
2018-07-26T05:29:44.342Z,7.23
2018-07-26T05:32:14.480Z,7.20
2018-07-26T05:34:44.552Z,7.13
2018-07-26T05:37:14.559Z,6.93
2018-07-26T05:39:44.579Z,7.27
2018-07-26T05:42:14.819Z,6.60
2018-07-26T05:44:44.892Z,6.77
2018-07-26T05:47:15.006Z,6.40
2018-07-26T05:49:45.104Z,5.50
2018-07-26T05:52:15.203Z,5.47
2018-07-26T05:54:45.304Z,5.27
2018-07-26T05:57:15.423Z,5.47
2018-07-26T05:59:45.592Z,5.60
2018-07-26T06:02:15.839Z,4.97
2018-07-26T06:04:45.907Z,5.20
2018-07-26T06:07:16.058Z,4.47
2018-07-26T06:09:46.481Z,4.53
2018-07-26T06:12:16.569Z,4.80
2018-07-26T06:14:46.636Z,4.37
2018-07-26T06:17:16.818Z,4.10
2018-07-26T06:19:46.829Z,4.07
2018-07-26T06:22:16.930Z,4.43
2018-07-26T06:24:46.960Z,4.47
2018-07-26T06:27:17.049Z,3.87
2018-07-26T06:29:47.100Z,4.67
2018-07-26T06:32:17.219Z,4.23
2018-07-26T06:34:47.272Z,4.27
2018-07-26T06:37:17.375Z,4.73
2018-07-26T06:39:47.489Z,4.10
2018-07-26T06:42:17.603Z,3.70
2018-07-26T06:44:47.696Z,4.43
2018-07-26T06:47:17.855Z,3.97
2018-07-26T06:49:47.972Z,4.07
2018-07-26T06:52:18.332Z,4.07
2018-07-26T06:54:48.079Z,4.00
2018-07-26T06:57:17.882Z,3.70
2018-07-26T06:59:47.955Z,3.67
2018-07-26T07:02:18.020Z,3.50
2018-07-26T07:04:48.147Z,3.63
2018-07-26T07:07:18.068Z,3.83
2018-07-26T07:09:47.924Z,3.50
2018-07-26T07:12:18.060Z,4.10
2018-07-26T07:14:48.212Z,4.00
2018-07-26T07:17:18.336Z,3.20
2018-07-26T07:19:48.411Z,3.50
2018-07-26T07:22:18.620Z,3.20
2018-07-26T07:24:48.735Z,3.80
2018-07-26T07:27:18.855Z,3.33
2018-07-26T07:29:48.958Z,3.97
2018-07-26T07:32:19.075Z,3.63
2018-07-26T07:34:49.192Z,3.80
2018-07-26T07:37:19.296Z,3.80
2018-07-26T07:39:49.421Z,3.80
2018-07-26T07:42:19.489Z,3.73
2018-07-26T07:44:49.613Z,3.53
2018-07-26T07:47:19.674Z,3.33
2018-07-26T07:49:49.887Z,3.30
2018-07-26T07:52:20.036Z,3.43
2018-07-26T07:54:50.155Z,2.90
2018-07-26T07:57:20.247Z,3.87
2018-07-26T07:59:50.433Z,3.13
2018-07-26T08:02:20.496Z,2.67
2018-07-26T08:04:50.588Z,2.60
2018-07-26T08:07:20.683Z,2.90
2018-07-26T08:09:50.383Z,3.03
2018-07-26T08:12:20.293Z,2.77
2018-07-26T08:14:50.367Z,2.80
2018-07-26T08:17:20.495Z,2.67
2018-07-26T08:19:50.899Z,3.10
2018-07-26T08:22:20.975Z,2.80
2018-07-26T08:24:51.043Z,2.50
2018-07-26T08:27:21.085Z,3.00
2018-07-26T08:29:51.440Z,2.53
2018-07-26T08:32:21.532Z,2.50
2018-07-26T08:34:51.603Z,2.70
2018-07-26T08:37:21.419Z,2.63
2018-07-26T08:39:51.208Z,2.90
2018-07-26T08:42:21.295Z,2.57
2018-07-26T08:44:51.353Z,2.43
2018-07-26T08:47:21.424Z,2.90
2018-07-26T08:49:52.424Z,2.53
2018-07-26T08:52:22.460Z,2.57
2018-07-26T08:54:52.520Z,2.60
2018-07-26T08:57:22.616Z,2.90
2018-07-26T08:59:52.676Z,2.70
2018-07-26T09:02:22.791Z,2.52
2018-07-26T09:04:52.846Z,2.83
2018-07-26T09:07:22.896Z,3.00
2018-07-26T09:09:53.000Z,2.70
2018-07-26T09:12:23.068Z,2.73
2018-07-26T09:14:53.137Z,2.60
2018-07-26T09:17:23.446Z,2.70
2018-07-26T09:19:53.496Z,2.90
2018-07-26T09:22:23.550Z,2.62
2018-07-26T09:24:53.555Z,3.00
2018-07-26T09:27:23.375Z,3.17
2018-07-26T09:29:53.501Z,2.60
2018-07-26T09:32:23.596Z,2.90
2018-07-26T09:34:53.680Z,3.20
2018-07-26T09:37:23.780Z,3.20
2018-07-26T09:39:53.844Z,2.87
2018-07-26T09:42:24.048Z,2.83
2018-07-26T09:44:54.128Z,3.17
2018-07-26T09:47:24.208Z,3.33
2018-07-26T09:49:54.316Z,3.00
2018-07-26T09:52:24.127Z,2.95
2018-07-26T09:54:53.981Z,3.20
2018-07-26T09:57:24.140Z,3.22
2018-07-26T09:59:54.364Z,3.05
2018-07-26T10:02:24.453Z,3.10
2018-07-26T10:04:54.572Z,3.10
2018-07-26T10:07:24.641Z,3.30
2018-07-26T10:09:54.812Z,3.35
2018-07-26T10:12:24.932Z,3.60
2018-07-26T10:14:55.193Z,3.60
2018-07-26T10:17:25.236Z,3.30
2018-07-26T10:19:55.292Z,3.40
2018-07-26T10:22:25.308Z,3.67
2018-07-26T10:24:55.352Z,3.58
2018-07-26T10:27:25.468Z,3.60
2018-07-26T10:29:55.547Z,3.80
2018-07-26T10:32:25.621Z,3.27
2018-07-26T10:34:55.712Z,3.27
2018-07-26T10:37:25.847Z,3.80
2018-07-26T10:39:55.956Z,3.52
2018-07-26T10:42:26.551Z,3.80
2018-07-26T10:44:56.584Z,3.80
2018-07-26T10:47:26.656Z,3.47
2018-07-26T10:49:56.761Z,3.50
2018-07-26T10:52:27.009Z,3.70
2018-07-26T10:54:57.120Z,3.22
2018-07-26T10:57:27.208Z,3.60
2018-07-26T10:59:57.287Z,3.12
2018-07-26T11:02:27.368Z,3.25
2018-07-26T11:04:57.435Z,3.00
2018-07-26T11:07:27.520Z,3.42
2018-07-26T11:09:57.571Z,5.05
2018-07-26T11:12:27.944Z,3.33
2018-07-26T11:15:15.591Z,3.30
2018-07-26T11:17:45.700Z,3.55
2018-07-26T11:20:15.731Z,3.65
2018-07-26T11:22:45.800Z,2.87
2018-07-26T11:25:15.912Z,3.47
2018-07-26T11:27:46.029Z,3.10
2018-07-26T11:30:16.156Z,3.35
2018-07-26T11:32:46.267Z,3.00
2018-07-26T11:35:16.427Z,3.20
2018-07-26T11:37:46.534Z,3.35
2018-07-26T11:40:16.624Z,3.02
2018-07-26T11:42:46.719Z,3.10
2018-07-26T11:45:16.790Z,3.55
2018-07-26T11:47:46.847Z,3.22
2018-07-26T11:50:16.932Z,2.90
2018-07-26T11:52:47.130Z,3.15
2018-07-26T11:55:17.188Z,3.05
2018-07-26T11:57:47.414Z,3.05
2018-07-26T12:00:17.620Z,3.10
2018-07-26T12:02:47.716Z,3.02
2018-07-26T12:05:17.932Z,3.20
2018-07-26T12:07:47.976Z,3.42
2018-07-26T12:10:18.117Z,2.90
2018-07-26T12:12:48.308Z,3.17
2018-07-26T12:15:18.372Z,3.30
2018-07-26T12:17:48.128Z,10.35
2018-07-26T12:20:18.048Z,3.85
2018-07-26T12:22:48.141Z,3.50
2018-07-26T12:25:18.312Z,3.30
2018-07-26T12:27:48.201Z,3.35
2018-07-26T12:30:18.052Z,3.30
2018-07-26T12:32:48.160Z,3.47
2018-07-26T12:35:18.332Z,3.30
2018-07-26T12:37:48.433Z,3.12
2018-07-26T12:40:18.544Z,3.30
2018-07-26T12:42:48.952Z,3.15
2018-07-26T12:45:18.761Z,3.12
2018-07-26T12:47:48.637Z,3.20
2018-07-26T12:50:18.744Z,3.20
2018-07-26T12:52:48.900Z,3.17
2018-07-26T12:55:19.000Z,3.30
2018-07-26T12:57:49.148Z,3.30
2018-07-26T13:00:19.272Z,3.67
2018-07-26T13:02:49.507Z,3.22
2018-07-26T13:05:19.324Z,3.42
2018-07-26T13:07:49.139Z,3.40
2018-07-26T13:10:19.240Z,3.40
2018-07-26T13:12:49.491Z,3.12
2018-07-26T13:15:19.588Z,3.50
2018-07-26T13:17:49.752Z,3.22
2018-07-26T13:20:19.936Z,3.20
2018-07-26T13:22:50.120Z,3.10
2018-07-26T13:25:20.132Z,2.87
2018-07-26T13:27:50.360Z,3.17
2018-07-26T13:30:20.469Z,3.08
2018-07-26T13:32:50.560Z,3.22
2018-07-26T13:35:20.261Z,2.85
2018-07-26T13:37:49.708Z,2.65
2018-07-26T13:40:19.572Z,3.15
2018-07-26T13:42:49.706Z,3.15
2018-07-26T13:45:19.764Z,2.87
2018-07-26T13:47:49.876Z,2.42
2018-07-26T13:50:19.898Z,2.77
2018-07-26T13:52:50.329Z,2.92
2018-07-26T13:55:20.384Z,2.87
2018-07-26T13:57:50.565Z,3.35
2018-07-26T14:00:20.637Z,3.20
2018-07-26T14:02:50.726Z,3.05
2018-07-26T14:05:20.769Z,3.15
2018-07-26T14:07:50.848Z,3.15
2018-07-26T14:10:20.892Z,2.70
2018-07-26T14:12:50.956Z,2.85
2018-07-26T14:15:21.021Z,2.87
2018-07-26T14:17:51.128Z,3.27
2018-07-26T14:20:21.235Z,3.58
2018-07-26T14:22:51.348Z,3.02
2018-07-26T14:25:21.424Z,2.58
2018-07-26T14:27:51.541Z,2.95
2018-07-26T14:30:21.668Z,2.83
2018-07-26T14:32:51.908Z,3.10
2018-07-26T14:35:21.988Z,2.80
2018-07-26T14:37:52.052Z,3.20
2018-07-26T14:40:22.163Z,2.80
2018-07-26T14:42:52.244Z,2.72
2018-07-26T14:45:22.297Z,3.10
2018-07-26T14:47:52.417Z,3.30
2018-07-26T14:50:22.544Z,2.60
2018-07-26T14:52:52.663Z,2.55
2018-07-26T14:55:22.812Z,4.40
2018-07-26T14:57:52.896Z,2.65
2018-07-26T15:00:22.986Z,2.47
2018-07-26T15:02:53.073Z,3.27
2018-07-26T15:05:23.156Z,2.98
2018-07-26T15:07:53.275Z,2.37
2018-07-26T15:10:23.867Z,2.83
2018-07-26T15:12:53.984Z,2.65
2018-07-26T15:15:24.120Z,2.60
2018-07-26T15:17:54.188Z,2.40
2018-07-26T15:20:23.959Z,2.47
2018-07-26T15:22:53.751Z,2.65
2018-07-26T15:25:25.399Z,2.27
2018-07-26T15:27:56.544Z,2.10
2018-07-26T15:30:26.652Z,2.08
2018-07-26T15:32:56.731Z,2.30
2018-07-26T15:35:26.847Z,2.20
2018-07-26T15:37:56.972Z,2.30
2018-07-26T15:40:27.141Z,2.00
2018-07-26T15:42:57.208Z,2.40
2018-07-26T15:45:27.270Z,2.30
2018-07-26T15:47:57.366Z,2.00
2018-07-26T15:50:27.432Z,2.33
2018-07-26T15:52:57.272Z,2.50
2018-07-26T15:55:27.042Z,2.33
2018-07-26T15:57:57.132Z,2.22
2018-07-26T16:00:27.228Z,2.47
2018-07-26T16:02:57.321Z,2.17
2018-07-26T16:05:27.508Z,2.15
2018-07-26T16:07:57.555Z,2.10
2018-07-26T16:10:27.633Z,2.10
2018-07-26T16:12:57.704Z,4.42
2018-07-26T16:15:27.824Z,2.13
2018-07-26T16:17:58.114Z,2.15
2018-07-26T16:20:28.015Z,2.03
2018-07-26T16:22:58.060Z,2.10
2018-07-26T16:25:28.032Z,2.07
2018-07-26T16:27:58.054Z,2.10
2018-07-26T16:30:28.106Z,2.00
2018-07-26T16:32:58.232Z,2.70
2018-07-26T16:35:28.494Z,2.30
2018-07-26T16:37:58.571Z,1.77
2018-07-26T16:40:28.739Z,3.23
2018-07-26T16:42:58.913Z,2.25
2018-07-26T16:45:29.037Z,2.43
2018-07-26T16:47:59.117Z,2.00
2018-07-26T16:50:29.201Z,2.37
2018-07-26T16:52:59.300Z,2.37
2018-07-26T16:55:29.335Z,2.80
2018-07-26T16:57:59.400Z,2.57
2018-07-26T17:00:29.456Z,2.33
2018-07-26T17:02:59.564Z,2.90
2018-07-26T17:05:29.675Z,2.60
2018-07-26T17:07:59.776Z,2.80
2018-07-26T17:10:29.878Z,3.03
2018-07-26T17:12:59.988Z,2.77
2018-07-26T17:15:30.087Z,2.60
2018-07-26T17:18:00.246Z,2.60
2018-07-26T17:20:30.288Z,2.70
2018-07-26T17:23:00.309Z,2.80
2018-07-26T17:25:30.408Z,3.10
2018-07-26T17:28:00.544Z,2.57
2018-07-26T17:30:30.698Z,3.17
2018-07-26T17:33:00.812Z,3.10
2018-07-26T17:35:30.914Z,2.50
2018-07-26T17:38:01.084Z,2.67
2018-07-26T17:40:31.189Z,2.77
2018-07-26T17:43:01.272Z,2.60
2018-07-26T17:45:31.292Z,2.80
2018-07-26T17:48:01.368Z,2.53
2018-07-26T17:50:31.473Z,2.70
2018-07-26T17:53:01.592Z,2.57
2018-07-26T17:55:31.664Z,3.57
2018-07-26T17:58:01.708Z,3.00
2018-07-26T18:00:31.796Z,2.87
2018-07-26T18:03:01.896Z,3.03
2018-07-26T18:05:31.993Z,2.90
2018-07-26T18:08:02.057Z,3.20
2018-07-26T18:10:32.117Z,3.20
2018-07-26T18:13:02.220Z,3.40
2018-07-26T18:15:32.292Z,2.90
2018-07-26T18:18:02.372Z,2.90
2018-07-26T18:20:32.457Z,3.10
2018-07-26T18:23:02.616Z,3.30
2018-07-26T18:25:32.679Z,3.30
2018-07-26T18:28:02.736Z,3.23
2018-07-26T18:30:32.984Z,3.10
2018-07-26T18:33:03.056Z,3.30
2018-07-26T18:35:33.184Z,3.13
2018-07-26T18:38:03.305Z,3.20
2018-07-26T18:40:33.324Z,2.97
2018-07-26T18:43:03.395Z,3.10
2018-07-26T18:45:33.618Z,3.57
2018-07-26T18:48:03.732Z,2.73
2018-07-26T18:50:33.964Z,3.10
2018-07-26T18:53:04.057Z,3.30
2018-07-26T18:55:34.160Z,3.30
2018-07-26T18:58:04.221Z,3.30
2018-07-26T19:00:34.384Z,3.40
2018-07-26T19:03:04.544Z,3.37
2018-07-26T19:05:34.623Z,3.20
2018-07-26T19:08:04.535Z,3.13
2018-07-26T19:10:34.326Z,3.40
2018-07-26T19:13:04.472Z,3.93
2018-07-26T19:15:34.555Z,3.30
2018-07-26T19:18:04.684Z,3.40
2018-07-26T19:20:34.785Z,3.30
2018-07-26T19:23:04.923Z,3.20
2018-07-26T19:25:35.020Z,3.60
2018-07-26T19:28:05.148Z,3.63
2018-07-26T19:30:35.220Z,3.20
2018-07-26T19:33:05.313Z,3.50
2018-07-26T19:35:35.368Z,3.70
2018-07-26T19:38:05.448Z,3.33
2018-07-26T19:40:35.604Z,3.27
2018-07-26T19:43:05.680Z,3.53
2018-07-26T19:45:35.800Z,3.70
2018-07-26T19:48:05.904Z,4.10
2018-07-26T19:50:35.964Z,3.80
2018-07-26T19:53:05.779Z,3.53
2018-07-26T19:55:35.616Z,4.37
2018-07-26T19:58:05.672Z,3.67
2018-07-26T20:00:35.805Z,4.10
2018-07-26T20:03:05.876Z,3.73
2018-07-26T20:05:35.696Z,4.10
2018-07-26T20:08:05.476Z,4.17
2018-07-26T20:10:35.697Z,4.23
2018-07-26T20:13:05.796Z,3.60
2018-07-26T20:15:35.880Z,3.67
2018-07-26T20:18:05.956Z,4.20
2018-07-26T20:20:36.145Z,4.60
2018-07-26T20:23:06.218Z,3.80
2018-07-26T20:25:40.648Z,4.20
2018-07-26T20:28:11.090Z,4.90
2018-07-26T20:30:41.184Z,4.87
2018-07-26T20:33:11.252Z,4.50
2018-07-26T20:35:41.380Z,5.03
2018-07-26T20:38:11.497Z,4.00
2018-07-26T20:40:41.628Z,5.70
2018-07-26T20:43:11.721Z,4.70
2018-07-26T20:45:41.827Z,4.47
2018-07-26T20:48:11.919Z,4.60
2018-07-26T20:50:42.130Z,5.17
2018-07-26T20:53:12.193Z,5.00
2018-07-26T20:55:42.331Z,4.27
2018-07-26T20:58:12.401Z,4.87
2018-07-26T21:00:42.520Z,4.73
2018-07-26T21:03:12.668Z,5.03
2018-07-26T21:05:42.744Z,4.87
2018-07-26T21:08:12.823Z,5.00
2018-07-26T21:10:42.986Z,4.83
2018-07-26T21:13:13.060Z,5.27
2018-07-26T21:15:43.188Z,5.17
2018-07-26T21:18:13.480Z,5.10
2018-07-26T21:20:43.508Z,5.50
2018-07-26T21:23:13.644Z,5.53
2018-07-26T21:25:44.089Z,5.40
2018-07-26T21:28:14.217Z,5.20
2018-07-26T21:30:45.422Z,6.10
2018-07-26T21:33:16.682Z,5.60
2018-07-26T21:35:46.484Z,5.80
2018-07-26T21:38:16.282Z,5.67
2018-07-26T21:40:46.348Z,5.57
2018-07-26T21:43:17.032Z,6.07
2018-07-26T21:45:47.380Z,5.30
2018-07-26T21:48:17.480Z,5.13
2018-07-26T21:50:47.516Z,5.57
2018-07-26T21:53:17.688Z,5.90
2018-07-26T21:55:47.844Z,6.47
2018-07-26T21:58:17.992Z,5.17
2018-07-26T22:00:53.409Z,5.60
2018-07-26T22:03:23.476Z,5.23
2018-07-26T22:05:53.858Z,5.60
2018-07-26T22:08:23.952Z,5.40
2018-07-26T22:10:54.028Z,5.77
2018-07-26T22:13:24.076Z,4.97
2018-07-26T22:15:54.179Z,5.97
2018-07-26T22:18:23.927Z,5.57
2018-07-26T22:20:53.799Z,5.73
2018-07-26T22:23:23.925Z,6.10
2018-07-26T22:25:53.976Z,5.40
2018-07-26T22:28:24.068Z,5.80
2018-07-26T22:30:54.180Z,5.20
2018-07-26T22:33:24.243Z,5.37
2018-07-26T22:35:54.356Z,5.43
2018-07-26T22:38:24.460Z,5.27
2018-07-26T22:40:54.517Z,5.47
2018-07-26T22:43:24.600Z,4.87
2018-07-26T22:45:54.811Z,5.37
2018-07-26T22:48:24.872Z,5.40
2018-07-26T22:50:54.944Z,5.20
2018-07-26T22:53:25.008Z,5.20
2018-07-26T22:55:55.068Z,5.40
2018-07-26T22:58:25.269Z,5.23
2018-07-26T23:00:55.405Z,5.33
2018-07-26T23:03:25.500Z,4.90
2018-07-26T23:05:55.187Z,5.80
2018-07-26T23:08:25.120Z,5.30
2018-07-26T23:10:55.180Z,5.20
2018-07-26T23:13:25.219Z,5.03
2018-07-26T23:15:55.284Z,5.47
2018-07-26T23:18:25.364Z,5.93
2018-07-26T23:20:55.752Z,5.70
2018-07-26T23:23:25.803Z,5.60
2018-07-26T23:25:55.848Z,5.60
2018-07-26T23:28:25.967Z,5.80
2018-07-26T23:30:56.036Z,5.70
2018-07-26T23:33:26.136Z,6.30
2018-07-26T23:35:56.226Z,5.57
2018-07-26T23:38:26.305Z,4.97
2018-07-26T23:40:56.360Z,5.53
2018-07-26T23:43:26.430Z,5.80
2018-07-26T23:45:56.412Z,6.30
2018-07-26T23:48:26.465Z,6.17
2018-07-26T23:50:56.520Z,5.83
2018-07-26T23:53:26.584Z,5.80
2018-07-26T23:55:56.632Z,6.40
2018-07-26T23:58:26.916Z,6.17
